sensor_id;sensor_type;location;lat;lon;timestamp;P1;durP1;ratioP1;P2;durP2;ratioP2
4074;SDS011;2052;53.522;9.806;2023-05-10T00:01:50;7.47;;;4.67;;
4074;SDS011;2052;53.522;9.806;2023-05-10T00:04:17;5.63;;;5.00;;
4074;SDS011;2052;53.522;9.806;2023-05-10T00:06:43;6.53;;;4.40;;
4074;SDS011;2052;53.522;9.806;2023-05-10T00:09:10;7.27;;;4.33;;
4074;SDS011;2052;53.522;9.806;2023-05-10T00:11:36;8.20;;;4.70;;
4074;SDS011;2052;53.522;9.806;2023-05-10T00:14:03;7.43;;;4.87;;
4074;SDS011;2052;53.522;9.806;2023-05-10T00:16:31;10.53;;;4.70;;
4074;SDS011;2052;53.522;9.806;2023-05-10T00:18:57;7.70;;;5.10;;
4074;SDS011;2052;53.522;9.806;2023-05-10T00:21:25;7.90;;;4.80;;
4074;SDS011;2052;53.522;9.806;2023-05-10T00:23:53;6.37;;;4.70;;
4074;SDS011;2052;53.522;9.806;2023-05-10T00:26:19;8.20;;;4.87;;
4074;SDS011;2052;53.522;9.806;2023-05-10T00:28:46;7.03;;;5.40;;
4074;SDS011;2052;53.522;9.806;2023-05-10T00:31:13;6.43;;;5.10;;
4074;SDS011;2052;53.522;9.806;2023-05-10T00:33:41;12.30;;;5.70;;
4074;SDS011;2052;53.522;9.806;2023-05-10T00:36:07;8.67;;;5.20;;
4074;SDS011;2052;53.522;9.806;2023-05-10T00:38:34;14.67;;;6.40;;
4074;SDS011;2052;53.522;9.806;2023-05-10T00:41:01;8.97;;;6.27;;
4074;SDS011;2052;53.522;9.806;2023-05-10T00:43:27;7.33;;;5.60;;
4074;SDS011;2052;53.522;9.806;2023-05-10T00:45:54;8.77;;;5.60;;
4074;SDS011;2052;53.522;9.806;2023-05-10T00:48:22;8.03;;;5.80;;
4074;SDS011;2052;53.522;9.806;2023-05-10T00:50:50;9.03;;;5.77;;
4074;SDS011;2052;53.522;9.806;2023-05-10T00:53:16;7.87;;;5.40;;
4074;SDS011;2052;53.522;9.806;2023-05-10T00:55:43;8.80;;;5.63;;
4074;SDS011;2052;53.522;9.806;2023-05-10T00:58:10;10.70;;;5.70;;
4074;SDS011;2052;53.522;9.806;2023-05-10T01:00:36;6.70;;;6.00;;
4074;SDS011;2052;53.522;9.806;2023-05-10T01:03:04;11.23;;;5.80;;
4074;SDS011;2052;53.522;9.806;2023-05-10T01:05:30;6.80;;;6.10;;
4074;SDS011;2052;53.522;9.806;2023-05-10T01:07:59;6.47;;;5.20;;
4074;SDS011;2052;53.522;9.806;2023-05-10T01:10:25;9.40;;;5.50;;
4074;SDS011;2052;53.522;9.806;2023-05-10T01:12:52;7.33;;;5.40;;
4074;SDS011;2052;53.522;9.806;2023-05-10T01:15:18;8.40;;;5.93;;
4074;SDS011;2052;53.522;9.806;2023-05-10T01:17:46;7.17;;;5.93;;
4074;SDS011;2052;53.522;9.806;2023-05-10T01:20:13;8.30;;;6.00;;
4074;SDS011;2052;53.522;9.806;2023-05-10T01:22:50;7.43;;;5.50;;
4074;SDS011;2052;53.522;9.806;2023-05-10T01:25:31;10.10;;;5.70;;
4074;SDS011;2052;53.522;9.806;2023-05-10T01:28:08;6.70;;;5.93;;
4074;SDS011;2052;53.522;9.806;2023-05-10T01:30:52;10.37;;;6.60;;
4074;SDS011;2052;53.522;9.806;2023-05-10T01:33:31;8.50;;;5.50;;
4074;SDS011;2052;53.522;9.806;2023-05-10T01:36:01;9.90;;;5.50;;
4074;SDS011;2052;53.522;9.806;2023-05-10T01:38:33;8.73;;;5.63;;
4074;SDS011;2052;53.522;9.806;2023-05-10T01:41:07;8.40;;;5.37;;
4074;SDS011;2052;53.522;9.806;2023-05-10T01:43:42;8.80;;;6.20;;
4074;SDS011;2052;53.522;9.806;2023-05-10T01:46:12;10.23;;;6.80;;
4074;SDS011;2052;53.522;9.806;2023-05-10T01:48:46;6.90;;;5.80;;
4074;SDS011;2052;53.522;9.806;2023-05-10T01:51:14;8.10;;;6.07;;
4074;SDS011;2052;53.522;9.806;2023-05-10T01:53:43;8.80;;;6.07;;
4074;SDS011;2052;53.522;9.806;2023-05-10T01:56:10;8.43;;;5.93;;
4074;SDS011;2052;53.522;9.806;2023-05-10T01:58:38;11.07;;;6.70;;
4074;SDS011;2052;53.522;9.806;2023-05-10T02:01:07;7.47;;;6.03;;
4074;SDS011;2052;53.522;9.806;2023-05-10T02:03:34;7.63;;;6.07;;
4074;SDS011;2052;53.522;9.806;2023-05-10T02:06:04;15.13;;;7.13;;
4074;SDS011;2052;53.522;9.806;2023-05-10T02:08:31;6.80;;;6.07;;
4074;SDS011;2052;53.522;9.806;2023-05-10T02:10:59;8.53;;;6.00;;
4074;SDS011;2052;53.522;9.806;2023-05-10T02:13:26;10.00;;;6.20;;
4074;SDS011;2052;53.522;9.806;2023-05-10T02:15:53;8.20;;;5.97;;
4074;SDS011;2052;53.522;9.806;2023-05-10T02:18:21;7.20;;;6.20;;
4074;SDS011;2052;53.522;9.806;2023-05-10T02:20:48;8.60;;;5.80;;
4074;SDS011;2052;53.522;9.806;2023-05-10T02:23:17;13.50;;;6.70;;
4074;SDS011;2052;53.522;9.806;2023-05-10T02:25:46;8.50;;;5.60;;
4074;SDS011;2052;53.522;9.806;2023-05-10T02:28:15;8.00;;;6.80;;
4074;SDS011;2052;53.522;9.806;2023-05-10T02:30:42;9.53;;;6.33;;
4074;SDS011;2052;53.522;9.806;2023-05-10T02:33:09;12.33;;;6.40;;
4074;SDS011;2052;53.522;9.806;2023-05-10T02:35:36;7.50;;;6.00;;
4074;SDS011;2052;53.522;9.806;2023-05-10T02:38:04;9.93;;;6.13;;
4074;SDS011;2052;53.522;9.806;2023-05-10T02:40:32;7.13;;;6.10;;
4074;SDS011;2052;53.522;9.806;2023-05-10T02:42:59;10.33;;;6.77;;
4074;SDS011;2052;53.522;9.806;2023-05-10T02:45:28;13.70;;;7.63;;
4074;SDS011;2052;53.522;9.806;2023-05-10T02:47:56;10.90;;;6.63;;
4074;SDS011;2052;53.522;9.806;2023-05-10T02:50:24;8.87;;;6.23;;
4074;SDS011;2052;53.522;9.806;2023-05-10T02:52:54;13.07;;;6.77;;
4074;SDS011;2052;53.522;9.806;2023-05-10T02:55:24;7.37;;;6.67;;
4074;SDS011;2052;53.522;9.806;2023-05-10T02:57:54;10.17;;;6.30;;
4074;SDS011;2052;53.522;9.806;2023-05-10T03:00:23;8.00;;;6.30;;
4074;SDS011;2052;53.522;9.806;2023-05-10T03:02:50;10.30;;;7.20;;
4074;SDS011;2052;53.522;9.806;2023-05-10T03:05:18;9.07;;;6.20;;
4074;SDS011;2052;53.522;9.806;2023-05-10T03:07:44;7.70;;;6.90;;
4074;SDS011;2052;53.522;9.806;2023-05-10T03:10:11;8.47;;;6.40;;
4074;SDS011;2052;53.522;9.806;2023-05-10T03:12:41;12.43;;;7.00;;
4074;SDS011;2052;53.522;9.806;2023-05-10T03:15:19;15.47;;;6.40;;
4074;SDS011;2052;53.522;9.806;2023-05-10T03:17:52;8.30;;;6.63;;
4074;SDS011;2052;53.522;9.806;2023-05-10T03:20:22;8.77;;;6.17;;
4074;SDS011;2052;53.522;9.806;2023-05-10T03:22:51;7.27;;;6.57;;
4074;SDS011;2052;53.522;9.806;2023-05-10T03:25:19;8.23;;;6.97;;
4074;SDS011;2052;53.522;9.806;2023-05-10T03:27:47;8.10;;;6.60;;
4074;SDS011;2052;53.522;9.806;2023-05-10T03:30:14;8.97;;;6.40;;
4074;SDS011;2052;53.522;9.806;2023-05-10T03:32:44;10.37;;;6.87;;
4074;SDS011;2052;53.522;9.806;2023-05-10T03:35:11;10.97;;;7.50;;
4074;SDS011;2052;53.522;9.806;2023-05-10T03:37:39;8.00;;;7.20;;
4074;SDS011;2052;53.522;9.806;2023-05-10T03:40:06;9.53;;;6.97;;
4074;SDS011;2052;53.522;9.806;2023-05-10T03:42:33;11.50;;;6.83;;
4074;SDS011;2052;53.522;9.806;2023-05-10T03:45:00;10.33;;;6.70;;
4074;SDS011;2052;53.522;9.806;2023-05-10T03:47:27;7.97;;;6.63;;
4074;SDS011;2052;53.522;9.806;2023-05-10T03:49:56;12.83;;;6.53;;
4074;SDS011;2052;53.522;9.806;2023-05-10T03:52:22;9.77;;;7.33;;
4074;SDS011;2052;53.522;9.806;2023-05-10T03:54:49;10.83;;;6.60;;
4074;SDS011;2052;53.522;9.806;2023-05-10T03:57:15;11.90;;;6.40;;
4074;SDS011;2052;53.522;9.806;2023-05-10T03:59:42;7.73;;;6.83;;
4074;SDS011;2052;53.522;9.806;2023-05-10T04:02:08;10.43;;;5.70;;
4074;SDS011;2052;53.522;9.806;2023-05-10T04:04:35;7.60;;;6.33;;
4074;SDS011;2052;53.522;9.806;2023-05-10T04:07:03;10.37;;;6.03;;
4074;SDS011;2052;53.522;9.806;2023-05-10T04:09:30;12.03;;;7.03;;
4074;SDS011;2052;53.522;9.806;2023-05-10T04:11:56;16.50;;;7.33;;
4074;SDS011;2052;53.522;9.806;2023-05-10T04:14:23;13.83;;;6.47;;
4074;SDS011;2052;53.522;9.806;2023-05-10T04:16:50;13.10;;;6.00;;
4074;SDS011;2052;53.522;9.806;2023-05-10T04:19:16;8.87;;;6.30;;
4074;SDS011;2052;53.522;9.806;2023-05-10T04:21:43;9.00;;;7.40;;
4074;SDS011;2052;53.522;9.806;2023-05-10T04:24:10;10.83;;;6.10;;
4074;SDS011;2052;53.522;9.806;2023-05-10T04:26:38;11.90;;;6.40;;
4074;SDS011;2052;53.522;9.806;2023-05-10T04:29:04;8.40;;;6.67;;
4074;SDS011;2052;53.522;9.806;2023-05-10T04:31:31;7.20;;;6.47;;
4074;SDS011;2052;53.522;9.806;2023-05-10T04:33:57;8.50;;;6.13;;
4074;SDS011;2052;53.522;9.806;2023-05-10T04:36:24;8.13;;;6.80;;
4074;SDS011;2052;53.522;9.806;2023-05-10T04:38:51;9.50;;;6.67;;
4074;SDS011;2052;53.522;9.806;2023-05-10T04:41:19;8.77;;;6.57;;
4074;SDS011;2052;53.522;9.806;2023-05-10T04:43:46;7.80;;;6.70;;
4074;SDS011;2052;53.522;9.806;2023-05-10T04:46:14;10.23;;;7.43;;
4074;SDS011;2052;53.522;9.806;2023-05-10T04:48:40;11.30;;;5.80;;
4074;SDS011;2052;53.522;9.806;2023-05-10T04:51:07;10.57;;;6.77;;
4074;SDS011;2052;53.522;9.806;2023-05-10T04:53:34;11.10;;;5.87;;
4074;SDS011;2052;53.522;9.806;2023-05-10T04:56:00;7.17;;;5.50;;
4074;SDS011;2052;53.522;9.806;2023-05-10T04:58:28;11.03;;;6.03;;
4074;SDS011;2052;53.522;9.806;2023-05-10T05:00:55;9.73;;;5.37;;
4074;SDS011;2052;53.522;9.806;2023-05-10T05:03:21;8.50;;;6.23;;
4074;SDS011;2052;53.522;9.806;2023-05-10T05:05:48;8.00;;;5.70;;
4074;SDS011;2052;53.522;9.806;2023-05-10T05:08:15;8.47;;;5.83;;
4074;SDS011;2052;53.522;9.806;2023-05-10T05:10:42;9.00;;;5.60;;
4074;SDS011;2052;53.522;9.806;2023-05-10T05:13:08;5.70;;;5.10;;
4074;SDS011;2052;53.522;9.806;2023-05-10T05:15:36;6.50;;;5.37;;
4074;SDS011;2052;53.522;9.806;2023-05-10T05:18:03;11.13;;;5.73;;
4074;SDS011;2052;53.522;9.806;2023-05-10T05:20:31;9.90;;;6.10;;
4074;SDS011;2052;53.522;9.806;2023-05-10T05:22:58;8.77;;;5.70;;
4074;SDS011;2052;53.522;9.806;2023-05-10T05:25:25;10.53;;;5.07;;
4074;SDS011;2052;53.522;9.806;2023-05-10T05:27:51;8.97;;;5.57;;
4074;SDS011;2052;53.522;9.806;2023-05-10T05:30:20;9.90;;;5.80;;
4074;SDS011;2052;53.522;9.806;2023-05-10T05:32:48;9.17;;;6.00;;
4074;SDS011;2052;53.522;9.806;2023-05-10T05:35:15;8.00;;;5.40;;
4074;SDS011;2052;53.522;9.806;2023-05-10T05:37:42;14.10;;;6.27;;
4074;SDS011;2052;53.522;9.806;2023-05-10T05:40:11;9.00;;;5.80;;
4074;SDS011;2052;53.522;9.806;2023-05-10T05:42:38;7.53;;;6.37;;
4074;SDS011;2052;53.522;9.806;2023-05-10T05:45:06;7.20;;;5.80;;
4074;SDS011;2052;53.522;9.806;2023-05-10T05:47:33;9.03;;;6.17;;
4074;SDS011;2052;53.522;9.806;2023-05-10T05:50:01;8.10;;;6.20;;
4074;SDS011;2052;53.522;9.806;2023-05-10T05:52:28;9.10;;;5.90;;
4074;SDS011;2052;53.522;9.806;2023-05-10T05:54:55;13.00;;;5.60;;
4074;SDS011;2052;53.522;9.806;2023-05-10T05:57:21;9.23;;;6.50;;
4074;SDS011;2052;53.522;9.806;2023-05-10T05:59:48;9.37;;;7.00;;
4074;SDS011;2052;53.522;9.806;2023-05-10T06:02:15;10.93;;;6.40;;
4074;SDS011;2052;53.522;9.806;2023-05-10T06:04:42;10.30;;;6.20;;
4074;SDS011;2052;53.522;9.806;2023-05-10T06:07:09;7.47;;;6.13;;
4074;SDS011;2052;53.522;9.806;2023-05-10T06:09:36;9.30;;;6.67;;
4074;SDS011;2052;53.522;9.806;2023-05-10T06:12:02;6.93;;;6.10;;
4074;SDS011;2052;53.522;9.806;2023-05-10T06:14:30;7.67;;;5.50;;
4074;SDS011;2052;53.522;9.806;2023-05-10T06:16:56;7.73;;;5.70;;
4074;SDS011;2052;53.522;9.806;2023-05-10T06:19:24;11.50;;;6.37;;
4074;SDS011;2052;53.522;9.806;2023-05-10T06:21:51;10.83;;;5.97;;
4074;SDS011;2052;53.522;9.806;2023-05-10T06:24:19;8.50;;;5.70;;
4074;SDS011;2052;53.522;9.806;2023-05-10T06:26:46;6.07;;;5.47;;
4074;SDS011;2052;53.522;9.806;2023-05-10T06:29:14;11.17;;;5.90;;
4074;SDS011;2052;53.522;9.806;2023-05-10T06:31:41;11.93;;;6.27;;
4074;SDS011;2052;53.522;9.806;2023-05-10T06:34:08;11.00;;;6.30;;
4074;SDS011;2052;53.522;9.806;2023-05-10T06:36:34;11.40;;;6.40;;
4074;SDS011;2052;53.522;9.806;2023-05-10T06:39:01;7.60;;;5.60;;
4074;SDS011;2052;53.522;9.806;2023-05-10T06:41:32;8.27;;;5.50;;
4074;SDS011;2052;53.522;9.806;2023-05-10T06:43:59;8.47;;;6.20;;
4074;SDS011;2052;53.522;9.806;2023-05-10T06:46:25;9.60;;;5.93;;
4074;SDS011;2052;53.522;9.806;2023-05-10T06:48:52;10.63;;;5.17;;
4074;SDS011;2052;53.522;9.806;2023-05-10T06:51:19;9.70;;;5.13;;
4074;SDS011;2052;53.522;9.806;2023-05-10T06:53:46;5.70;;;5.20;;
4074;SDS011;2052;53.522;9.806;2023-05-10T06:56:12;6.30;;;5.40;;
4074;SDS011;2052;53.522;9.806;2023-05-10T06:58:40;6.00;;;5.40;;
4074;SDS011;2052;53.522;9.806;2023-05-10T07:01:07;7.00;;;5.60;;
4074;SDS011;2052;53.522;9.806;2023-05-10T07:03:34;9.80;;;5.87;;
4074;SDS011;2052;53.522;9.806;2023-05-10T07:06:00;7.27;;;5.07;;
4074;SDS011;2052;53.522;9.806;2023-05-10T07:08:29;8.57;;;6.07;;
4074;SDS011;2052;53.522;9.806;2023-05-10T07:10:59;6.57;;;5.83;;
4074;SDS011;2052;53.522;9.806;2023-05-10T07:13:26;6.40;;;5.80;;
4074;SDS011;2052;53.522;9.806;2023-05-10T07:15:54;6.67;;;5.07;;
4074;SDS011;2052;53.522;9.806;2023-05-10T07:18:20;7.27;;;5.57;;
4074;SDS011;2052;53.522;9.806;2023-05-10T07:20:50;8.03;;;5.67;;
4074;SDS011;2052;53.522;9.806;2023-05-10T07:23:17;9.23;;;5.23;;
4074;SDS011;2052;53.522;9.806;2023-05-10T07:25:44;9.80;;;5.77;;
4074;SDS011;2052;53.522;9.806;2023-05-10T07:28:11;8.03;;;5.03;;
4074;SDS011;2052;53.522;9.806;2023-05-10T07:30:38;7.73;;;5.37;;
4074;SDS011;2052;53.522;9.806;2023-05-10T07:33:07;7.57;;;5.77;;
4074;SDS011;2052;53.522;9.806;2023-05-10T07:35:34;6.33;;;5.73;;
4074;SDS011;2052;53.522;9.806;2023-05-10T07:38:01;8.60;;;5.20;;
4074;SDS011;2052;53.522;9.806;2023-05-10T07:40:50;8.33;;;5.03;;
4074;SDS011;2052;53.522;9.806;2023-05-10T07:43:16;7.30;;;6.17;;
4074;SDS011;2052;53.522;9.806;2023-05-10T07:45:43;7.13;;;5.27;;
4074;SDS011;2052;53.522;9.806;2023-05-10T07:48:12;6.90;;;5.70;;
4074;SDS011;2052;53.522;9.806;2023-05-10T07:50:44;8.73;;;5.60;;
4074;SDS011;2052;53.522;9.806;2023-05-10T07:53:17;7.83;;;6.43;;
4074;SDS011;2052;53.522;9.806;2023-05-10T07:56:22;10.83;;;5.87;;
4074;SDS011;2052;53.522;9.806;2023-05-10T07:59:02;9.33;;;6.10;;
4074;SDS011;2052;53.522;9.806;2023-05-10T08:01:31;8.73;;;6.33;;
4074;SDS011;2052;53.522;9.806;2023-05-10T08:03:58;8.43;;;6.53;;
4074;SDS011;2052;53.522;9.806;2023-05-10T08:06:34;11.50;;;6.20;;
4074;SDS011;2052;53.522;9.806;2023-05-10T08:09:01;9.60;;;6.80;;
4074;SDS011;2052;53.522;9.806;2023-05-10T08:11:35;11.00;;;5.60;;
4074;SDS011;2052;53.522;9.806;2023-05-10T08:14:04;7.47;;;5.70;;
4074;SDS011;2052;53.522;9.806;2023-05-10T08:16:31;6.93;;;6.20;;
4074;SDS011;2052;53.522;9.806;2023-05-10T08:19:18;9.70;;;6.30;;
4074;SDS011;2052;53.522;9.806;2023-05-10T08:22:11;15.00;;;6.83;;
4074;SDS011;2052;53.522;9.806;2023-05-10T08:24:49;8.03;;;6.43;;
4074;SDS011;2052;53.522;9.806;2023-05-10T08:27:17;9.30;;;5.70;;
4074;SDS011;2052;53.522;9.806;2023-05-10T08:29:43;8.17;;;6.10;;
4074;SDS011;2052;53.522;9.806;2023-05-10T08:32:10;7.23;;;5.90;;
4074;SDS011;2052;53.522;9.806;2023-05-10T08:34:37;6.90;;;6.17;;
4074;SDS011;2052;53.522;9.806;2023-05-10T08:37:03;8.20;;;6.33;;
4074;SDS011;2052;53.522;9.806;2023-05-10T08:39:33;8.43;;;5.90;;
4074;SDS011;2052;53.522;9.806;2023-05-10T08:42:01;11.00;;;6.97;;
4074;SDS011;2052;53.522;9.806;2023-05-10T08:44:29;8.80;;;6.23;;
4074;SDS011;2052;53.522;9.806;2023-05-10T08:46:57;8.00;;;6.57;;
4074;SDS011;2052;53.522;9.806;2023-05-10T08:49:24;7.13;;;6.30;;
4074;SDS011;2052;53.522;9.806;2023-05-10T08:51:51;7.13;;;5.93;;
4074;SDS011;2052;53.522;9.806;2023-05-10T08:54:18;7.83;;;6.07;;
4074;SDS011;2052;53.522;9.806;2023-05-10T08:56:45;7.30;;;6.60;;
4074;SDS011;2052;53.522;9.806;2023-05-10T08:59:11;7.97;;;6.33;;
4074;SDS011;2052;53.522;9.806;2023-05-10T09:01:40;11.60;;;7.40;;
4074;SDS011;2052;53.522;9.806;2023-05-10T09:04:09;9.97;;;6.83;;
4074;SDS011;2052;53.522;9.806;2023-05-10T09:06:37;11.43;;;6.80;;
4074;SDS011;2052;53.522;9.806;2023-05-10T09:09:07;12.50;;;7.40;;
4074;SDS011;2052;53.522;9.806;2023-05-10T09:11:46;7.67;;;6.80;;
4074;SDS011;2052;53.522;9.806;2023-05-10T09:14:13;12.67;;;7.60;;
4074;SDS011;2052;53.522;9.806;2023-05-10T09:16:42;7.93;;;7.13;;
4074;SDS011;2052;53.522;9.806;2023-05-10T09:19:09;10.63;;;7.50;;
4074;SDS011;2052;53.522;9.806;2023-05-10T09:21:36;10.03;;;7.90;;
4074;SDS011;2052;53.522;9.806;2023-05-10T09:24:03;11.30;;;7.67;;
4074;SDS011;2052;53.522;9.806;2023-05-10T09:26:31;13.97;;;7.33;;
4074;SDS011;2052;53.522;9.806;2023-05-10T09:28:58;11.20;;;7.23;;
4074;SDS011;2052;53.522;9.806;2023-05-10T09:34:17;10.10;;;7.67;;
4074;SDS011;2052;53.522;9.806;2023-05-10T09:36:51;14.47;;;7.77;;
4074;SDS011;2052;53.522;9.806;2023-05-10T09:39:19;9.30;;;7.67;;
4074;SDS011;2052;53.522;9.806;2023-05-10T09:41:46;10.00;;;8.13;;
4074;SDS011;2052;53.522;9.806;2023-05-10T09:44:16;11.73;;;8.20;;
4074;SDS011;2052;53.522;9.806;2023-05-10T09:46:46;13.63;;;8.60;;
4074;SDS011;2052;53.522;9.806;2023-05-10T09:49:15;9.40;;;8.07;;
4074;SDS011;2052;53.522;9.806;2023-05-10T09:51:41;22.00;;;12.13;;
4074;SDS011;2052;53.522;9.806;2023-05-10T09:54:08;14.77;;;10.43;;
4074;SDS011;2052;53.522;9.806;2023-05-10T09:56:36;11.37;;;8.57;;
4074;SDS011;2052;53.522;9.806;2023-05-10T09:59:05;9.93;;;7.93;;
4074;SDS011;2052;53.522;9.806;2023-05-10T10:01:33;11.00;;;8.60;;
4074;SDS011;2052;53.522;9.806;2023-05-10T10:06:58;12.07;;;9.63;;
4074;SDS011;2052;53.522;9.806;2023-05-10T10:09:28;12.43;;;9.30;;
4074;SDS011;2052;53.522;9.806;2023-05-10T10:11:58;10.00;;;8.77;;
4074;SDS011;2052;53.522;9.806;2023-05-10T10:14:34;11.40;;;10.20;;
4074;SDS011;2052;53.522;9.806;2023-05-10T10:17:00;12.80;;;10.00;;
4074;SDS011;2052;53.522;9.806;2023-05-10T10:19:28;16.60;;;11.00;;
4074;SDS011;2052;53.522;9.806;2023-05-10T10:21:57;14.27;;;10.10;;
4074;SDS011;2052;53.522;9.806;2023-05-10T10:24:24;12.13;;;9.77;;
4074;SDS011;2052;53.522;9.806;2023-05-10T10:26:50;14.50;;;10.30;;
4074;SDS011;2052;53.522;9.806;2023-05-10T10:29:21;11.83;;;10.50;;
4074;SDS011;2052;53.522;9.806;2023-05-10T10:31:52;15.00;;;9.93;;
4074;SDS011;2052;53.522;9.806;2023-05-10T10:34:25;15.00;;;11.00;;
4074;SDS011;2052;53.522;9.806;2023-05-10T10:36:55;13.53;;;11.17;;
4074;SDS011;2052;53.522;9.806;2023-05-10T10:39:23;13.90;;;10.93;;
4074;SDS011;2052;53.522;9.806;2023-05-10T10:41:51;15.57;;;10.07;;
4074;SDS011;2052;53.522;9.806;2023-05-10T10:44:30;14.03;;;11.17;;
4074;SDS011;2052;53.522;9.806;2023-05-10T10:47:03;18.60;;;10.63;;
4074;SDS011;2052;53.522;9.806;2023-05-10T10:49:43;14.67;;;10.27;;
4074;SDS011;2052;53.522;9.806;2023-05-10T10:52:23;14.57;;;10.87;;
4074;SDS011;2052;53.522;9.806;2023-05-10T10:54:57;15.00;;;10.47;;
4074;SDS011;2052;53.522;9.806;2023-05-10T10:57:26;17.13;;;10.20;;
4074;SDS011;2052;53.522;9.806;2023-05-10T11:02:47;13.03;;;10.20;;
4074;SDS011;2052;53.522;9.806;2023-05-10T11:05:25;12.10;;;9.80;;
4074;SDS011;2052;53.522;9.806;2023-05-10T11:08:16;15.43;;;10.60;;
4074;SDS011;2052;53.522;9.806;2023-05-10T11:13:37;13.83;;;10.00;;
4074;SDS011;2052;53.522;9.806;2023-05-10T11:16:12;12.00;;;9.60;;
4074;SDS011;2052;53.522;9.806;2023-05-10T11:18:40;16.63;;;10.07;;
4074;SDS011;2052;53.522;9.806;2023-05-10T11:21:08;13.80;;;9.70;;
4074;SDS011;2052;53.522;9.806;2023-05-10T11:23:48;17.13;;;10.83;;
4074;SDS011;2052;53.522;9.806;2023-05-10T11:26:16;14.07;;;9.87;;
4074;SDS011;2052;53.522;9.806;2023-05-10T11:28:43;14.70;;;8.87;;
4074;SDS011;2052;53.522;9.806;2023-05-10T11:31:17;14.20;;;9.67;;
4074;SDS011;2052;53.522;9.806;2023-05-10T11:33:44;14.40;;;9.43;;
4074;SDS011;2052;53.522;9.806;2023-05-10T11:36:12;21.40;;;15.90;;
4074;SDS011;2052;53.522;9.806;2023-05-10T11:38:38;14.43;;;10.07;;
4074;SDS011;2052;53.522;9.806;2023-05-10T11:41:06;11.40;;;9.00;;
4074;SDS011;2052;53.522;9.806;2023-05-10T11:43:36;11.20;;;9.03;;
4074;SDS011;2052;53.522;9.806;2023-05-10T11:46:03;12.73;;;10.00;;
4074;SDS011;2052;53.522;9.806;2023-05-10T11:48:33;10.43;;;8.47;;
4074;SDS011;2052;53.522;9.806;2023-05-10T11:51:03;12.60;;;9.57;;
4074;SDS011;2052;53.522;9.806;2023-05-10T11:53:31;13.30;;;9.67;;
4074;SDS011;2052;53.522;9.806;2023-05-10T11:56:02;12.70;;;8.80;;
4074;SDS011;2052;53.522;9.806;2023-05-10T11:58:33;11.40;;;8.33;;
4074;SDS011;2052;53.522;9.806;2023-05-10T12:01:00;10.93;;;8.50;;
4074;SDS011;2052;53.522;9.806;2023-05-10T12:03:28;9.57;;;7.87;;
4074;SDS011;2052;53.522;9.806;2023-05-10T12:05:58;11.87;;;10.50;;
4074;SDS011;2052;53.522;9.806;2023-05-10T12:08:26;8.57;;;7.50;;
4074;SDS011;2052;53.522;9.806;2023-05-10T12:11:03;9.27;;;8.03;;
4074;SDS011;2052;53.522;9.806;2023-05-10T12:13:32;10.90;;;8.43;;
4074;SDS011;2052;53.522;9.806;2023-05-10T12:16:12;11.13;;;8.17;;
4074;SDS011;2052;53.522;9.806;2023-05-10T12:18:39;13.87;;;7.70;;
4074;SDS011;2052;53.522;9.806;2023-05-10T12:21:06;8.70;;;7.00;;
4074;SDS011;2052;53.522;9.806;2023-05-10T12:23:33;7.93;;;7.13;;
4074;SDS011;2052;53.522;9.806;2023-05-10T12:26:03;8.03;;;7.03;;
4074;SDS011;2052;53.522;9.806;2023-05-10T12:28:30;6.90;;;6.20;;
4074;SDS011;2052;53.522;9.806;2023-05-10T12:30:59;7.37;;;6.50;;
4074;SDS011;2052;53.522;9.806;2023-05-10T12:33:26;6.17;;;5.57;;
4074;SDS011;2052;53.522;9.806;2023-05-10T12:35:53;9.70;;;6.70;;
4074;SDS011;2052;53.522;9.806;2023-05-10T12:38:28;7.93;;;6.77;;
4074;SDS011;2052;53.522;9.806;2023-05-10T12:41:07;8.43;;;6.90;;
4074;SDS011;2052;53.522;9.806;2023-05-10T12:43:35;6.33;;;5.70;;
4074;SDS011;2052;53.522;9.806;2023-05-10T12:46:12;7.70;;;6.67;;
4074;SDS011;2052;53.522;9.806;2023-05-10T12:48:39;6.97;;;6.27;;
4074;SDS011;2052;53.522;9.806;2023-05-10T12:51:19;6.20;;;5.60;;
4074;SDS011;2052;53.522;9.806;2023-05-10T12:53:47;8.83;;;6.17;;
4074;SDS011;2052;53.522;9.806;2023-05-10T12:56:20;6.20;;;5.60;;
4074;SDS011;2052;53.522;9.806;2023-05-10T12:58:47;6.50;;;5.87;;
4074;SDS011;2052;53.522;9.806;2023-05-10T13:01:17;6.93;;;5.97;;
4074;SDS011;2052;53.522;9.806;2023-05-10T13:03:45;7.93;;;6.10;;
4074;SDS011;2052;53.522;9.806;2023-05-10T13:06:12;8.00;;;6.70;;
4074;SDS011;2052;53.522;9.806;2023-05-10T13:08:39;9.87;;;7.90;;
4074;SDS011;2052;53.522;9.806;2023-05-10T13:11:06;8.30;;;7.07;;
4074;SDS011;2052;53.522;9.806;2023-05-10T13:13:33;6.77;;;6.00;;
4074;SDS011;2052;53.522;9.806;2023-05-10T13:16:00;8.17;;;6.93;;
4074;SDS011;2052;53.522;9.806;2023-05-10T13:18:31;8.53;;;6.70;;
4074;SDS011;2052;53.522;9.806;2023-05-10T13:20:58;7.77;;;6.70;;
4074;SDS011;2052;53.522;9.806;2023-05-10T13:23:24;7.87;;;7.07;;
4074;SDS011;2052;53.522;9.806;2023-05-10T13:25:51;8.50;;;7.03;;
4074;SDS011;2052;53.522;9.806;2023-05-10T13:28:17;7.93;;;7.13;;
4074;SDS011;2052;53.522;9.806;2023-05-10T13:30:44;9.33;;;7.30;;
4074;SDS011;2052;53.522;9.806;2023-05-10T13:33:11;7.93;;;6.80;;
4074;SDS011;2052;53.522;9.806;2023-05-10T13:35:39;8.83;;;6.53;;
4074;SDS011;2052;53.522;9.806;2023-05-10T13:38:05;11.20;;;7.70;;
4074;SDS011;2052;53.522;9.806;2023-05-10T13:40:33;8.07;;;7.37;;
4074;SDS011;2052;53.522;9.806;2023-05-10T13:43:00;8.70;;;7.53;;
4074;SDS011;2052;53.522;9.806;2023-05-10T13:45:27;10.80;;;8.40;;
4074;SDS011;2052;53.522;9.806;2023-05-10T13:47:54;11.23;;;8.50;;
4074;SDS011;2052;53.522;9.806;2023-05-10T13:50:20;8.90;;;7.87;;
4074;SDS011;2052;53.522;9.806;2023-05-10T13:52:51;8.67;;;7.60;;
4074;SDS011;2052;53.522;9.806;2023-05-10T13:55:24;9.43;;;8.13;;
4074;SDS011;2052;53.522;9.806;2023-05-10T13:57:55;9.60;;;8.30;;
4074;SDS011;2052;53.522;9.806;2023-05-10T14:00:24;7.90;;;6.93;;
4074;SDS011;2052;53.522;9.806;2023-05-10T14:02:50;8.87;;;7.70;;
4074;SDS011;2052;53.522;9.806;2023-05-10T14:05:17;8.70;;;7.90;;
4074;SDS011;2052;53.522;9.806;2023-05-10T14:07:43;11.20;;;8.07;;
4074;SDS011;2052;53.522;9.806;2023-05-10T14:10:11;8.80;;;6.90;;
4074;SDS011;2052;53.522;9.806;2023-05-10T14:12:37;8.80;;;7.90;;
4074;SDS011;2052;53.522;9.806;2023-05-10T14:15:04;8.90;;;7.57;;
4074;SDS011;2052;53.522;9.806;2023-05-10T14:17:31;9.10;;;7.90;;
4074;SDS011;2052;53.522;9.806;2023-05-10T14:20:01;7.53;;;6.80;;
4074;SDS011;2052;53.522;9.806;2023-05-10T14:22:28;10.97;;;7.23;;
4074;SDS011;2052;53.522;9.806;2023-05-10T14:24:55;7.40;;;6.70;;
4074;SDS011;2052;53.522;9.806;2023-05-10T14:27:23;9.70;;;6.70;;
4074;SDS011;2052;53.522;9.806;2023-05-10T14:29:50;7.53;;;6.73;;
4074;SDS011;2052;53.522;9.806;2023-05-10T14:32:16;8.83;;;7.07;;
4074;SDS011;2052;53.522;9.806;2023-05-10T14:34:43;10.17;;;7.20;;
4074;SDS011;2052;53.522;9.806;2023-05-10T14:37:10;7.97;;;6.87;;
4074;SDS011;2052;53.522;9.806;2023-05-10T14:39:40;10.13;;;6.97;;
4074;SDS011;2052;53.522;9.806;2023-05-10T14:42:08;6.13;;;5.60;;
4074;SDS011;2052;53.522;9.806;2023-05-10T14:44:37;8.60;;;6.03;;
4074;SDS011;2052;53.522;9.806;2023-05-10T14:47:03;14.80;;;9.97;;
4074;SDS011;2052;53.522;9.806;2023-05-10T14:49:30;12.50;;;9.47;;
4074;SDS011;2052;53.522;9.806;2023-05-10T14:52:00;8.77;;;6.70;;
4074;SDS011;2052;53.522;9.806;2023-05-10T14:54:27;6.60;;;5.90;;
4074;SDS011;2052;53.522;9.806;2023-05-10T14:56:55;8.37;;;6.77;;
4074;SDS011;2052;53.522;9.806;2023-05-10T14:59:22;7.40;;;6.60;;
4074;SDS011;2052;53.522;9.806;2023-05-10T15:01:50;8.07;;;6.90;;
4074;SDS011;2052;53.522;9.806;2023-05-10T15:04:16;8.70;;;6.83;;
4074;SDS011;2052;53.522;9.806;2023-05-10T15:06:44;7.07;;;5.93;;
4074;SDS011;2052;53.522;9.806;2023-05-10T15:09:12;7.20;;;6.50;;
4074;SDS011;2052;53.522;9.806;2023-05-10T15:11:41;8.93;;;6.20;;
4074;SDS011;2052;53.522;9.806;2023-05-10T15:14:09;6.90;;;5.70;;
4074;SDS011;2052;53.522;9.806;2023-05-10T15:16:36;6.30;;;5.67;;
4074;SDS011;2052;53.522;9.806;2023-05-10T15:19:05;7.53;;;5.23;;
4074;SDS011;2052;53.522;9.806;2023-05-10T15:21:32;6.67;;;5.73;;
4074;SDS011;2052;53.522;9.806;2023-05-10T15:24:03;8.73;;;6.90;;
4074;SDS011;2052;53.522;9.806;2023-05-10T15:26:30;8.90;;;6.47;;
4074;SDS011;2052;53.522;9.806;2023-05-10T15:28:57;9.67;;;6.90;;
4074;SDS011;2052;53.522;9.806;2023-05-10T15:31:24;7.00;;;5.90;;